LIPQ Airport Information

Runway Information
Runway 09 Length 9843 ft width 148 ft
Elevation 37 ft Threshold 656 ft Heading 90
Runway 27 Length 9843 ft Width 148 ft
Elevation 36 ft Threshold 0 ft Heading 270
Airport Frequencies
Type APP Name APP Frequency 119.175 MHZ
Type TWR Name TWR Frequency 130.2 MHZ
Airport Navaids
Type VOR-DME Name Ronchi Frequency 114200 KHZ
Type NDB Name Ronchi Frequency 396 KHZ
Airport Weather Information & NOTAM
ADDS - METARS form results

(1442 UTC 24 June 2018)
 
METAR text: LIPQ 241420Z 23008KT 190V270 9999 SCT080 24/11 Q1017
Conditions at: LIPQ (RONCHI LEGIONARI, IT) observed 1420 UTC 24 June 2018
Temperature: 24.0°C (75°F)
Dewpoint: 11.0°C (52°F) [RH = 44%]
Pressure (altimeter): 30.03 inches Hg (1017.0 mb)
Winds: from the SW (230 degrees) at 9 MPH (8 knots; 4.2 m/s)
Visibility: 6 or more miles (10+ km)
Ceiling: at least 12,000 feet AGL
Clouds: scattered clouds at 8000 feet AGL
Weather: no significant weather observed at this time

METAR text: LIPQ 241350Z 24009KT 200V270 9999 SCT070 24/11 Q1017
Conditions at: LIPQ (RONCHI LEGIONARI, IT) observed 1350 UTC 24 June 2018
Temperature: 24.0°C (75°F)
Dewpoint: 11.0°C (52°F) [RH = 44%]
Pressure (altimeter): 30.03 inches Hg (1017.0 mb)
Winds: from the WSW (240 degrees) at 10 MPH (9 knots; 4.7 m/s)
Visibility: 6 or more miles (10+ km)
Ceiling: at least 12,000 feet AGL
Clouds: scattered clouds at 7000 feet AGL
Weather: no significant weather observed at this time